sensor_id;sensor_type;location;lat;lon;timestamp;pressure;altitude;pressure_sealevel;temperature;humidity
35908;BME280;22003;50.320;8.054;2024-01-11T00:00:28;100995.75;;;-9.19;98.63
35908;BME280;22003;50.320;8.054;2024-01-11T00:02:54;101005.97;;;-8.83;98.73
35908;BME280;22003;50.320;8.054;2024-01-11T00:05:19;101000.63;;;-8.92;98.17
35908;BME280;22003;50.320;8.054;2024-01-11T00:07:44;100980.75;;;-9.00;98.11
35908;BME280;22003;50.320;8.054;2024-01-11T00:10:09;101004.69;;;-9.01;97.63
35908;BME280;22003;50.320;8.054;2024-01-11T00:12:35;101004.44;;;-9.12;97.72
35908;BME280;22003;50.320;8.054;2024-01-11T00:15:00;101006.91;;;-9.17;97.81
35908;BME280;22003;50.320;8.054;2024-01-11T00:17:25;100998.91;;;-9.32;97.53
35908;BME280;22003;50.320;8.054;2024-01-11T00:19:51;101016.13;;;-9.26;97.77
35908;BME280;22003;50.320;8.054;2024-01-11T00:22:16;101022.13;;;-9.26;97.96
35908;BME280;22003;50.320;8.054;2024-01-11T00:24:41;100998.41;;;-9.16;97.83
35908;BME280;22003;50.320;8.054;2024-01-11T00:27:07;101016.88;;;-8.93;97.99
35908;BME280;22003;50.320;8.054;2024-01-11T00:29:32;101001.78;;;-9.17;97.75
35908;BME280;22003;50.320;8.054;2024-01-11T00:31:58;101022.38;;;-9.15;97.66
35908;BME280;22003;50.320;8.054;2024-01-11T00:34:23;101028.28;;;-9.18;97.52
35908;BME280;22003;50.320;8.054;2024-01-11T00:36:48;101018.00;;;-9.19;97.72
35908;BME280;22003;50.320;8.054;2024-01-11T00:39:14;101017.09;;;-9.21;97.81
35908;BME280;22003;50.320;8.054;2024-01-11T00:41:39;101005.91;;;-9.23;98.08
35908;BME280;22003;50.320;8.054;2024-01-11T00:44:04;101020.81;;;-9.09;98.34
35908;BME280;22003;50.320;8.054;2024-01-11T00:46:30;101024.38;;;-9.00;98.55
35908;BME280;22003;50.320;8.054;2024-01-11T00:48:55;101019.25;;;-9.00;98.46
35908;BME280;22003;50.320;8.054;2024-01-11T00:51:20;101020.19;;;-8.97;98.57
35908;BME280;22003;50.320;8.054;2024-01-11T00:53:45;101023.75;;;-8.90;99.00
35908;BME280;22003;50.320;8.054;2024-01-11T00:56:18;101012.72;;;-8.86;99.15
35908;BME280;22003;50.320;8.054;2024-01-11T00:58:44;101021.06;;;-8.96;98.68
35908;BME280;22003;50.320;8.054;2024-01-11T01:01:10;101004.44;;;-9.12;98.88
35908;BME280;22003;50.320;8.054;2024-01-11T01:03:35;101000.97;;;-9.16;98.58
35908;BME280;22003;50.320;8.054;2024-01-11T01:06:01;101024.88;;;-9.17;98.66
35908;BME280;22003;50.320;8.054;2024-01-11T01:08:27;101020.28;;;-9.32;98.57
35908;BME280;22003;50.320;8.054;2024-01-11T01:10:52;101028.84;;;-9.33;98.72
35908;BME280;22003;50.320;8.054;2024-01-11T01:13:17;101028.88;;;-9.29;98.79
35908;BME280;22003;50.320;8.054;2024-01-11T01:15:43;101034.00;;;-9.31;98.73
35908;BME280;22003;50.320;8.054;2024-01-11T01:18:08;101031.31;;;-9.36;99.21
35908;BME280;22003;50.320;8.054;2024-01-11T01:20:33;101030.59;;;-9.30;99.25
35908;BME280;22003;50.320;8.054;2024-01-11T01:22:58;101027.00;;;-9.38;98.96
35908;BME280;22003;50.320;8.054;2024-01-11T01:25:24;101036.41;;;-9.37;99.14
35908;BME280;22003;50.320;8.054;2024-01-11T01:27:49;101044.28;;;-9.29;99.25
35908;BME280;22003;50.320;8.054;2024-01-11T01:30:14;101043.19;;;-9.39;99.09
35908;BME280;22003;50.320;8.054;2024-01-11T01:32:39;101037.41;;;-9.32;99.44
35908;BME280;22003;50.320;8.054;2024-01-11T01:35:05;101017.41;;;-9.44;99.35
35908;BME280;22003;50.320;8.054;2024-01-11T01:37:30;101036.06;;;-9.15;99.35
35908;BME280;22003;50.320;8.054;2024-01-11T01:39:55;101039.50;;;-9.14;98.83
35908;BME280;22003;50.320;8.054;2024-01-11T01:42:21;101032.59;;;-9.17;98.82
35908;BME280;22003;50.320;8.054;2024-01-11T01:44:46;101033.31;;;-9.22;98.50
35908;BME280;22003;50.320;8.054;2024-01-11T01:47:11;101047.19;;;-9.16;98.49
35908;BME280;22003;50.320;8.054;2024-01-11T01:49:37;101033.91;;;-9.34;98.19
35908;BME280;22003;50.320;8.054;2024-01-11T01:52:03;101012.38;;;-9.41;98.02
35908;BME280;22003;50.320;8.054;2024-01-11T01:54:31;101034.00;;;-9.31;98.07
35908;BME280;22003;50.320;8.054;2024-01-11T01:56:57;101037.13;;;-9.43;98.14
35908;BME280;22003;50.320;8.054;2024-01-11T01:59:24;101047.19;;;-9.50;98.25
35908;BME280;22003;50.320;8.054;2024-01-11T02:01:50;101059.41;;;-9.42;98.39
35908;BME280;22003;50.320;8.054;2024-01-11T02:04:16;101053.91;;;-9.55;98.51
35908;BME280;22003;50.320;8.054;2024-01-11T02:06:44;101032.34;;;-9.65;98.80
35908;BME280;22003;50.320;8.054;2024-01-11T02:09:10;101042.03;;;-9.53;98.63
35908;BME280;22003;50.320;8.054;2024-01-11T02:11:37;101050.31;;;-9.64;98.45
35908;BME280;22003;50.320;8.054;2024-01-11T02:14:02;101059.56;;;-9.70;98.10
35908;BME280;22003;50.320;8.054;2024-01-11T02:16:28;101033.53;;;-9.86;98.17
35908;BME280;22003;50.320;8.054;2024-01-11T02:18:53;101044.09;;;-9.72;98.36
35908;BME280;22003;50.320;8.054;2024-01-11T02:21:19;101045.03;;;-9.70;98.63
35908;BME280;22003;50.320;8.054;2024-01-11T02:24:03;101049.06;;;-9.79;98.91
35908;BME280;22003;50.320;8.054;2024-01-11T02:26:28;101053.22;;;-9.83;98.99
35908;BME280;22003;50.320;8.054;2024-01-11T02:28:53;101010.81;;;-10.05;99.16
35908;BME280;22003;50.320;8.054;2024-01-11T02:31:19;101048.50;;;-9.68;99.39
35908;BME280;22003;50.320;8.054;2024-01-11T02:33:44;101033.00;;;-9.72;99.60
35908;BME280;22003;50.320;8.054;2024-01-11T02:36:10;101053.88;;;-9.57;99.72
35908;BME280;22003;50.320;8.054;2024-01-11T02:38:35;101040.88;;;-9.65;99.60
35908;BME280;22003;50.320;8.054;2024-01-11T02:41:01;101052.16;;;-9.58;99.46
35908;BME280;22003;50.320;8.054;2024-01-11T02:43:27;101061.03;;;-9.44;99.76
35908;BME280;22003;50.320;8.054;2024-01-11T02:45:55;101043.81;;;-9.49;99.80
35908;BME280;22003;50.320;8.054;2024-01-11T02:48:21;101043.19;;;-9.39;99.42
35908;BME280;22003;50.320;8.054;2024-01-11T02:50:48;101048.56;;;-9.30;99.50
35908;BME280;22003;50.320;8.054;2024-01-11T02:53:13;101055.25;;;-9.37;99.59
35908;BME280;22003;50.320;8.054;2024-01-11T02:55:38;101056.94;;;-9.37;99.82
35908;BME280;22003;50.320;8.054;2024-01-11T02:58:03;101061.16;;;-9.39;99.92
35908;BME280;22003;50.320;8.054;2024-01-11T03:00:29;101056.16;;;-9.33;100.00
35908;BME280;22003;50.320;8.054;2024-01-11T03:02:54;101057.72;;;-9.40;100.00
35908;BME280;22003;50.320;8.054;2024-01-11T03:05:19;101037.19;;;-9.40;100.00
35908;BME280;22003;50.320;8.054;2024-01-11T03:07:44;101042.53;;;-9.32;100.00
35908;BME280;22003;50.320;8.054;2024-01-11T03:10:10;101044.25;;;-9.31;100.00
35908;BME280;22003;50.320;8.054;2024-01-11T03:12:35;101047.47;;;-9.40;100.00
35908;BME280;22003;50.320;8.054;2024-01-11T03:15:00;101032.03;;;-9.41;100.00
35908;BME280;22003;50.320;8.054;2024-01-11T03:17:26;101033.72;;;-9.43;100.00
35908;BME280;22003;50.320;8.054;2024-01-11T03:19:51;101031.06;;;-9.46;100.00
35908;BME280;22003;50.320;8.054;2024-01-11T03:22:16;101031.16;;;-9.43;100.00
35908;BME280;22003;50.320;8.054;2024-01-11T03:24:42;101031.47;;;-9.66;99.78
35908;BME280;22003;50.320;8.054;2024-01-11T03:27:07;101025.94;;;-9.82;99.92
35908;BME280;22003;50.320;8.054;2024-01-11T03:29:32;101027.28;;;-9.61;100.00
35908;BME280;22003;50.320;8.054;2024-01-11T03:31:58;101032.53;;;-9.56;99.79
35908;BME280;22003;50.320;8.054;2024-01-11T03:34:23;101037.75;;;-9.53;99.50
35908;BME280;22003;50.320;8.054;2024-01-11T03:36:48;101030.44;;;-9.72;99.07
35908;BME280;22003;50.320;8.054;2024-01-11T03:39:13;101008.50;;;-9.94;98.68
35908;BME280;22003;50.320;8.054;2024-01-11T03:41:43;100991.13;;;-10.06;98.86
35908;BME280;22003;50.320;8.054;2024-01-11T03:44:09;101008.44;;;-9.99;99.18
35908;BME280;22003;50.320;8.054;2024-01-11T03:46:34;100991.78;;;-10.15;99.12
35908;BME280;22003;50.320;8.054;2024-01-11T03:48:59;101021.97;;;-10.03;99.24
35908;BME280;22003;50.320;8.054;2024-01-11T03:51:25;101019.16;;;-10.12;99.43
35908;BME280;22003;50.320;8.054;2024-01-11T03:53:50;101025.38;;;-10.04;99.58
35908;BME280;22003;50.320;8.054;2024-01-11T03:56:15;101023.88;;;-9.96;99.85
35908;BME280;22003;50.320;8.054;2024-01-11T03:58:40;101027.09;;;-10.04;99.45
35908;BME280;22003;50.320;8.054;2024-01-11T04:01:09;101026.97;;;-10.09;99.66
35908;BME280;22003;50.320;8.054;2024-01-11T04:03:35;101025.31;;;-10.05;99.74
35908;BME280;22003;50.320;8.054;2024-01-11T04:06:00;101009.59;;;-10.19;99.57
35908;BME280;22003;50.320;8.054;2024-01-11T04:08:26;101020.03;;;-10.12;99.61
35908;BME280;22003;50.320;8.054;2024-01-11T04:10:51;101027.13;;;-10.01;99.69
35908;BME280;22003;50.320;8.054;2024-01-11T04:13:16;101015.19;;;-10.01;100.00
35908;BME280;22003;50.320;8.054;2024-01-11T04:15:42;101020.59;;;-9.90;100.00
35908;BME280;22003;50.320;8.054;2024-01-11T04:18:07;101028.25;;;-9.92;100.00
35908;BME280;22003;50.320;8.054;2024-01-11T04:20:32;101029.84;;;-9.95;99.90
35908;BME280;22003;50.320;8.054;2024-01-11T04:22:58;101026.03;;;-10.11;99.74
35908;BME280;22003;50.320;8.054;2024-01-11T04:25:23;101041.09;;;-9.90;99.50
35908;BME280;22003;50.320;8.054;2024-01-11T04:27:48;101030.25;;;-9.80;99.36
35908;BME280;22003;50.320;8.054;2024-01-11T04:30:14;101029.78;;;-9.98;99.05
35908;BME280;22003;50.320;8.054;2024-01-11T04:32:39;101028.72;;;-10.06;98.98
35908;BME280;22003;50.320;8.054;2024-01-11T04:35:05;101028.66;;;-10.09;98.65
35908;BME280;22003;50.320;8.054;2024-01-11T04:37:30;101027.66;;;-10.15;98.77
35908;BME280;22003;50.320;8.054;2024-01-11T04:39:55;101030.06;;;-10.21;99.00
35908;BME280;22003;50.320;8.054;2024-01-11T04:42:25;101037.00;;;-10.17;98.91
35908;BME280;22003;50.320;8.054;2024-01-11T04:44:50;101035.00;;;-10.28;98.83
35908;BME280;22003;50.320;8.054;2024-01-11T04:47:15;101046.09;;;-10.29;98.83
35908;BME280;22003;50.320;8.054;2024-01-11T04:49:41;101053.94;;;-10.22;98.84
35908;BME280;22003;50.320;8.054;2024-01-11T04:52:06;101052.38;;;-10.17;99.05
35908;BME280;22003;50.320;8.054;2024-01-11T04:54:31;101036.78;;;-10.26;99.24
35908;BME280;22003;50.320;8.054;2024-01-11T04:56:57;101048.81;;;-10.22;98.89
35908;BME280;22003;50.320;8.054;2024-01-11T04:59:22;101047.34;;;-10.14;98.77
35908;BME280;22003;50.320;8.054;2024-01-11T05:01:48;101050.75;;;-10.13;99.24
35908;BME280;22003;50.320;8.054;2024-01-11T05:04:13;101039.19;;;-9.99;99.00
35908;BME280;22003;50.320;8.054;2024-01-11T05:06:38;101052.00;;;-9.99;99.02
35908;BME280;22003;50.320;8.054;2024-01-11T05:09:03;101044.25;;;-10.00;98.82
35908;BME280;22003;50.320;8.054;2024-01-11T05:11:29;101058.59;;;-10.07;98.52
35908;BME280;22003;50.320;8.054;2024-01-11T05:13:55;101057.28;;;-10.26;98.02
35908;BME280;22003;50.320;8.054;2024-01-11T05:16:21;101056.34;;;-10.29;98.02
35908;BME280;22003;50.320;8.054;2024-01-11T05:18:47;101038.38;;;-10.31;98.59
35908;BME280;22003;50.320;8.054;2024-01-11T05:21:13;101055.91;;;-10.45;98.17
35908;BME280;22003;50.320;8.054;2024-01-11T05:23:38;101027.19;;;-10.65;98.56
35908;BME280;22003;50.320;8.054;2024-01-11T05:26:04;101063.59;;;-10.45;98.93
35908;BME280;22003;50.320;8.054;2024-01-11T05:28:30;101054.97;;;-10.48;99.24
35908;BME280;22003;50.320;8.054;2024-01-11T05:30:56;101059.16;;;-10.50;99.26
35908;BME280;22003;50.320;8.054;2024-01-11T05:33:21;101064.28;;;-10.50;99.46
35908;BME280;22003;50.320;8.054;2024-01-11T05:35:46;101068.56;;;-10.49;99.38
35908;BME280;22003;50.320;8.054;2024-01-11T05:38:12;101067.38;;;-10.62;98.83
35908;BME280;22003;50.320;8.054;2024-01-11T05:40:37;101074.19;;;-10.62;98.96
35908;BME280;22003;50.320;8.054;2024-01-11T05:43:02;101067.53;;;-10.56;99.37
35908;BME280;22003;50.320;8.054;2024-01-11T05:45:28;101063.13;;;-10.61;99.48
35908;BME280;22003;50.320;8.054;2024-01-11T05:47:54;101072.09;;;-10.14;99.54
35908;BME280;22003;50.320;8.054;2024-01-11T05:50:19;101049.47;;;-10.60;98.65
35908;BME280;22003;50.320;8.054;2024-01-11T05:52:44;101048.50;;;-10.66;98.96
35908;BME280;22003;50.320;8.054;2024-01-11T05:55:09;101092.25;;;-10.58;98.64
35908;BME280;22003;50.320;8.054;2024-01-11T05:57:35;101097.25;;;-10.62;98.80
35908;BME280;22003;50.320;8.054;2024-01-11T06:00:00;101059.75;;;-10.89;98.86
35908;BME280;22003;50.320;8.054;2024-01-11T06:02:25;101104.03;;;-10.65;98.77
35908;BME280;22003;50.320;8.054;2024-01-11T06:04:51;101112.44;;;-10.69;98.94
35908;BME280;22003;50.320;8.054;2024-01-11T06:07:16;101113.97;;;-10.74;98.84
35908;BME280;22003;50.320;8.054;2024-01-11T06:09:41;101115.03;;;-10.67;99.01
35908;BME280;22003;50.320;8.054;2024-01-11T06:12:07;101123.53;;;-10.68;99.24
35908;BME280;22003;50.320;8.054;2024-01-11T06:14:32;101050.31;;;-11.20;99.22
35908;BME280;22003;50.320;8.054;2024-01-11T06:16:57;101129.69;;;-10.61;99.43
35908;BME280;22003;50.320;8.054;2024-01-11T06:19:23;101110.72;;;-10.68;98.84
35908;BME280;22003;50.320;8.054;2024-01-11T06:21:48;101147.25;;;-10.74;98.39
35908;BME280;22003;50.320;8.054;2024-01-11T06:24:13;101113.75;;;-10.81;98.84
35908;BME280;22003;50.320;8.054;2024-01-11T06:26:39;101138.59;;;-10.77;99.10
35908;BME280;22003;50.320;8.054;2024-01-11T06:29:04;101144.56;;;-10.78;98.81
35908;BME280;22003;50.320;8.054;2024-01-11T06:31:29;101135.16;;;-10.79;98.80
35908;BME280;22003;50.320;8.054;2024-01-11T06:33:54;101133.69;;;-10.71;99.30
35908;BME280;22003;50.320;8.054;2024-01-11T06:36:19;101136.50;;;-10.62;99.37
35908;BME280;22003;50.320;8.054;2024-01-11T06:38:45;101133.31;;;-10.83;99.24
35908;BME280;22003;50.320;8.054;2024-01-11T06:41:10;101117.53;;;-10.69;99.43
35908;BME280;22003;50.320;8.054;2024-01-11T06:43:35;101113.31;;;-10.67;99.76
35908;BME280;22003;50.320;8.054;2024-01-11T06:46:05;101149.63;;;-10.51;99.86
35908;BME280;22003;50.320;8.054;2024-01-11T06:48:31;101137.69;;;-10.51;100.00
35908;BME280;22003;50.320;8.054;2024-01-11T06:50:56;101151.44;;;-10.49;100.00
35908;BME280;22003;50.320;8.054;2024-01-11T06:53:21;101153.63;;;-10.32;99.96
35908;BME280;22003;50.320;8.054;2024-01-11T06:55:47;101153.06;;;-10.51;99.52
35908;BME280;22003;50.320;8.054;2024-01-11T06:58:13;101154.75;;;-10.51;99.56
35908;BME280;22003;50.320;8.054;2024-01-11T07:00:38;101144.06;;;-10.67;99.21
35908;BME280;22003;50.320;8.054;2024-01-11T07:03:08;101152.53;;;-10.69;99.17
35908;BME280;22003;50.320;8.054;2024-01-11T07:05:33;101165.19;;;-10.74;98.84
35908;BME280;22003;50.320;8.054;2024-01-11T07:07:58;101161.44;;;-10.85;98.89
35908;BME280;22003;50.320;8.054;2024-01-11T07:10:24;101143.22;;;-10.94;99.05
35908;BME280;22003;50.320;8.054;2024-01-11T07:12:49;101152.38;;;-10.74;98.87
35908;BME280;22003;50.320;8.054;2024-01-11T07:15:14;101153.91;;;-10.80;98.70
35908;BME280;22003;50.320;8.054;2024-01-11T07:17:40;101154.72;;;-10.81;99.01
35908;BME280;22003;50.320;8.054;2024-01-11T07:20:05;101161.72;;;-10.76;99.03
35908;BME280;22003;50.320;8.054;2024-01-11T07:22:31;101156.91;;;-10.94;99.21
35908;BME280;22003;50.320;8.054;2024-01-11T07:24:56;101164.03;;;-10.83;99.52
35908;BME280;22003;50.320;8.054;2024-01-11T07:27:21;101153.00;;;-10.82;98.93
35908;BME280;22003;50.320;8.054;2024-01-11T07:29:47;101151.03;;;-10.89;98.91
35908;BME280;22003;50.320;8.054;2024-01-11T07:32:12;101154.34;;;-10.94;98.56
35908;BME280;22003;50.320;8.054;2024-01-11T07:34:37;101142.50;;;-10.90;98.62
35908;BME280;22003;50.320;8.054;2024-01-11T07:37:03;101149.63;;;-10.80;98.64
35908;BME280;22003;50.320;8.054;2024-01-11T07:39:28;101136.00;;;-10.79;98.32
35908;BME280;22003;50.320;8.054;2024-01-11T07:41:56;101147.56;;;-10.65;98.51
35908;BME280;22003;50.320;8.054;2024-01-11T07:44:21;101133.91;;;-10.63;97.95
35908;BME280;22003;50.320;8.054;2024-01-11T07:46:47;101145.81;;;-10.66;97.54
35908;BME280;22003;50.320;8.054;2024-01-11T07:49:12;101105.81;;;-10.89;97.53
35908;BME280;22003;50.320;8.054;2024-01-11T07:51:37;101138.22;;;-10.62;97.99
35908;BME280;22003;50.320;8.054;2024-01-11T07:54:04;101142.75;;;-10.54;98.16
35908;BME280;22003;50.320;8.054;2024-01-11T07:56:30;101140.69;;;-10.37;98.07
35908;BME280;22003;50.320;8.054;2024-01-11T07:58:55;101148.56;;;-10.59;97.56
35908;BME280;22003;50.320;8.054;2024-01-11T08:01:20;101135.19;;;-10.49;97.77
35908;BME280;22003;50.320;8.054;2024-01-11T08:03:46;101161.19;;;-10.37;97.57
35908;BME280;22003;50.320;8.054;2024-01-11T08:06:12;101163.78;;;-10.35;97.80
35908;BME280;22003;50.320;8.054;2024-01-11T08:08:37;101163.59;;;-10.42;98.26
35908;BME280;22003;50.320;8.054;2024-01-11T08:11:09;101162.50;;;-10.20;98.43
35908;BME280;22003;50.320;8.054;2024-01-11T08:13:35;101159.72;;;-10.27;98.10
35908;BME280;22003;50.320;8.054;2024-01-11T08:16:03;101161.38;;;-10.29;98.05
35908;BME280;22003;50.320;8.054;2024-01-11T08:18:30;101139.63;;;-10.12;98.18
35908;BME280;22003;50.320;8.054;2024-01-11T08:20:55;101167.47;;;-9.94;97.90
35908;BME280;22003;50.320;8.054;2024-01-11T08:23:20;101175.25;;;-9.91;97.61
35908;BME280;22003;50.320;8.054;2024-01-11T08:25:46;101183.78;;;-9.92;97.74
35908;BME280;22003;50.320;8.054;2024-01-11T08:28:11;101185.81;;;-9.80;98.32
35908;BME280;22003;50.320;8.054;2024-01-11T08:30:36;101195.00;;;-9.55;98.57
35908;BME280;22003;50.320;8.054;2024-01-11T08:33:02;101192.03;;;-9.39;98.66
35908;BME280;22003;50.320;8.054;2024-01-11T08:35:29;101193.84;;;-9.35;98.41
35908;BME280;22003;50.320;8.054;2024-01-11T08:37:54;101168.00;;;-9.43;98.19
35908;BME280;22003;50.320;8.054;2024-01-11T08:40:20;101199.44;;;-9.17;98.12
35908;BME280;22003;50.320;8.054;2024-01-11T08:42:45;101202.47;;;-8.98;97.95
35908;BME280;22003;50.320;8.054;2024-01-11T08:45:11;101204.94;;;-9.03;97.11
35908;BME280;22003;50.320;8.054;2024-01-11T08:47:43;101200.47;;;-8.75;96.99
35908;BME280;22003;50.320;8.054;2024-01-11T08:50:12;101210.31;;;-8.92;96.20
35908;BME280;22003;50.320;8.054;2024-01-11T08:52:37;101192.34;;;-8.92;96.32
35908;BME280;22003;50.320;8.054;2024-01-11T08:55:04;101193.13;;;-8.59;96.61
35908;BME280;22003;50.320;8.054;2024-01-11T08:57:30;101198.38;;;-8.54;95.84
35908;BME280;22003;50.320;8.054;2024-01-11T08:59:55;101198.47;;;-8.49;96.05
35908;BME280;22003;50.320;8.054;2024-01-11T09:02:20;101180.44;;;-8.51;96.07
35908;BME280;22003;50.320;8.054;2024-01-11T09:04:46;101210.94;;;-8.27;96.27
35908;BME280;22003;50.320;8.054;2024-01-11T09:07:12;101203.50;;;-8.15;95.93
35908;BME280;22003;50.320;8.054;2024-01-11T09:09:37;101194.41;;;-7.98;96.24
35908;BME280;22003;50.320;8.054;2024-01-11T09:12:03;101176.47;;;-7.94;96.17
35908;BME280;22003;50.320;8.054;2024-01-11T09:14:28;101194.88;;;-7.73;96.02
35908;BME280;22003;50.320;8.054;2024-01-11T09:16:54;101185.00;;;-7.52;96.25
35908;BME280;22003;50.320;8.054;2024-01-11T09:19:20;101191.31;;;-7.36;96.67
35908;BME280;22003;50.320;8.054;2024-01-11T09:21:45;101185.50;;;-7.23;96.42
35908;BME280;22003;50.320;8.054;2024-01-11T09:24:10;101166.50;;;-7.31;95.83
35908;BME280;22003;50.320;8.054;2024-01-11T09:26:35;101176.06;;;-7.24;95.31
35908;BME280;22003;50.320;8.054;2024-01-11T09:29:01;101165.19;;;-7.06;95.35
35908;BME280;22003;50.320;8.054;2024-01-11T09:31:27;101190.34;;;-6.91;95.24
35908;BME280;22003;50.320;8.054;2024-01-11T09:33:52;101186.28;;;-6.77;95.12
35908;BME280;22003;50.320;8.054;2024-01-11T09:36:17;101194.31;;;-6.55;94.55
35908;BME280;22003;50.320;8.054;2024-01-11T09:38:43;101190.84;;;-6.60;94.64
35908;BME280;22003;50.320;8.054;2024-01-11T09:41:11;101196.97;;;-6.51;94.69
35908;BME280;22003;50.320;8.054;2024-01-11T09:43:37;101184.16;;;-6.45;94.59
35908;BME280;22003;50.320;8.054;2024-01-11T09:46:06;101196.66;;;-6.12;93.61
35908;BME280;22003;50.320;8.054;2024-01-11T09:48:35;101201.03;;;-6.06;93.27
35908;BME280;22003;50.320;8.054;2024-01-11T09:51:02;101197.94;;;-5.74;91.73
35908;BME280;22003;50.320;8.054;2024-01-11T09:53:30;101193.34;;;-6.00;90.87
35908;BME280;22003;50.320;8.054;2024-01-11T09:55:56;101200.28;;;-5.97;91.58
35908;BME280;22003;50.320;8.054;2024-01-11T09:58:23;101185.72;;;-5.92;91.39
35908;BME280;22003;50.320;8.054;2024-01-11T10:00:54;101199.78;;;-5.61;90.23
35908;BME280;22003;50.320;8.054;2024-01-11T10:03:24;101198.00;;;-5.71;90.45
35908;BME280;22003;50.320;8.054;2024-01-11T10:05:50;101203.28;;;-5.59;89.80
35908;BME280;22003;50.320;8.054;2024-01-11T10:08:21;101200.00;;;-5.43;90.32
35908;BME280;22003;50.320;8.054;2024-01-11T10:10:47;101177.63;;;-5.41;89.96
35908;BME280;22003;50.320;8.054;2024-01-11T10:13:13;101191.56;;;-5.23;89.94
35908;BME280;22003;50.320;8.054;2024-01-11T10:15:38;101184.78;;;-5.12;90.19
35908;BME280;22003;50.320;8.054;2024-01-11T10:18:04;101176.31;;;-4.96;89.61
35908;BME280;22003;50.320;8.054;2024-01-11T10:20:29;101185.84;;;-4.92;89.60
35908;BME280;22003;50.320;8.054;2024-01-11T10:22:57;101173.00;;;-4.83;89.63
35908;BME280;22003;50.320;8.054;2024-01-11T10:25:22;101168.78;;;-4.71;89.79
35908;BME280;22003;50.320;8.054;2024-01-11T10:27:48;101158.53;;;-4.53;89.06
35908;BME280;22003;50.320;8.054;2024-01-11T10:30:14;101174.97;;;-4.39;88.41
35908;BME280;22003;50.320;8.054;2024-01-11T10:32:49;101166.38;;;-4.36;87.36
35908;BME280;22003;50.320;8.054;2024-01-11T10:35:15;101159.63;;;-4.08;87.15
35908;BME280;22003;50.320;8.054;2024-01-11T10:37:43;101162.22;;;-4.10;86.55
35908;BME280;22003;50.320;8.054;2024-01-11T10:40:09;101157.59;;;-4.64;86.90
35908;BME280;22003;50.320;8.054;2024-01-11T10:42:41;101169.81;;;-4.40;87.69
35908;BME280;22003;50.320;8.054;2024-01-11T10:45:14;101170.63;;;-4.47;87.63
35908;BME280;22003;50.320;8.054;2024-01-11T10:47:54;101154.44;;;-4.14;87.39
35908;BME280;22003;50.320;8.054;2024-01-11T10:50:22;101154.53;;;-3.78;86.83
35908;BME280;22003;50.320;8.054;2024-01-11T10:53:04;101157.22;;;-3.61;84.24
35908;BME280;22003;50.320;8.054;2024-01-11T10:55:34;101133.88;;;-3.65;84.72
35908;BME280;22003;50.320;8.054;2024-01-11T10:58:00;101151.19;;;-3.37;83.53
35908;BME280;22003;50.320;8.054;2024-01-11T11:00:27;101146.03;;;-3.32;83.45
35908;BME280;22003;50.320;8.054;2024-01-11T11:02:54;101141.72;;;-3.32;83.61
35908;BME280;22003;50.320;8.054;2024-01-11T11:05:21;101146.00;;;-3.28;83.90
35908;BME280;22003;50.320;8.054;2024-01-11T11:07:48;101142.56;;;-2.75;82.30
35908;BME280;22003;50.320;8.054;2024-01-11T11:10:15;101137.38;;;-2.90;80.92
35908;BME280;22003;50.320;8.054;2024-01-11T11:12:44;101141.69;;;-3.33;83.38
35908;BME280;22003;50.320;8.054;2024-01-11T11:15:10;101145.16;;;-3.30;84.12
35908;BME280;22003;50.320;8.054;2024-01-11T11:17:38;101139.13;;;-2.83;84.39
35908;BME280;22003;50.320;8.054;2024-01-11T11:20:06;101140.75;;;-2.33;83.08
35908;BME280;22003;50.320;8.054;2024-01-11T11:22:35;101106.97;;;-2.30;82.81
35908;BME280;22003;50.320;8.054;2024-01-11T11:25:10;101109.53;;;-2.16;81.67
35908;BME280;22003;50.320;8.054;2024-01-11T11:27:36;101116.53;;;-2.41;81.22
35908;BME280;22003;50.320;8.054;2024-01-11T11:30:03;101095.59;;;-1.98;81.24
35908;BME280;22003;50.320;8.054;2024-01-11T11:32:39;101111.00;;;-1.66;79.41
35908;BME280;22003;50.320;8.054;2024-01-11T11:35:07;101122.34;;;-1.81;79.02
35908;BME280;22003;50.320;8.054;2024-01-11T11:37:36;101118.00;;;-1.77;79.79
35908;BME280;22003;50.320;8.054;2024-01-11T11:40:02;101117.94;;;-1.73;79.48
35908;BME280;22003;50.320;8.054;2024-01-11T11:42:30;101107.69;;;-1.96;79.02
35908;BME280;22003;50.320;8.054;2024-01-11T11:44:55;101113.78;;;-2.00;79.15
35908;BME280;22003;50.320;8.054;2024-01-11T11:47:23;101125.84;;;-1.88;77.81
35908;BME280;22003;50.320;8.054;2024-01-11T11:52:33;101116.19;;;-1.68;76.87
35908;BME280;22003;50.320;8.054;2024-01-11T11:54:59;101109.13;;;-1.47;76.85
35908;BME280;22003;50.320;8.054;2024-01-11T11:57:26;101100.44;;;-1.39;75.76
35908;BME280;22003;50.320;8.054;2024-01-11T11:59:55;101082.59;;;-1.94;76.03
35908;BME280;22003;50.320;8.054;2024-01-11T12:02:21;101105.13;;;-2.06;76.85
35908;BME280;22003;50.320;8.054;2024-01-11T12:04:47;101106.03;;;-2.09;77.62
35908;BME280;22003;50.320;8.054;2024-01-11T12:07:14;101105.28;;;-2.38;76.85
35908;BME280;22003;50.320;8.054;2024-01-11T12:09:40;101093.19;;;-2.44;77.61
35908;BME280;22003;50.320;8.054;2024-01-11T12:12:05;101100.97;;;-2.41;77.59
35908;BME280;22003;50.320;8.054;2024-01-11T12:14:30;101107.00;;;-2.31;77.73
35908;BME280;22003;50.320;8.054;2024-01-11T12:16:57;101006.00;;;-2.93;77.56
35908;BME280;22003;50.320;8.054;2024-01-11T12:19:23;101102.66;;;-2.34;77.25
35908;BME280;22003;50.320;8.054;2024-01-11T12:21:49;101081.81;;;-2.09;77.38
35908;BME280;22003;50.320;8.054;2024-01-11T12:24:15;101082.44;;;-1.72;76.02
35908;BME280;22003;50.320;8.054;2024-01-11T12:26:42;101094.63;;;-1.82;75.26
35908;BME280;22003;50.320;8.054;2024-01-11T12:29:07;101071.34;;;-1.97;75.13
35908;BME280;22003;50.320;8.054;2024-01-11T12:31:34;101095.53;;;-1.89;76.51
35908;BME280;22003;50.320;8.054;2024-01-11T12:34:01;101092.09;;;-1.96;74.15
35908;BME280;22003;50.320;8.054;2024-01-11T12:36:26;101077.34;;;-1.88;73.52
35908;BME280;22003;50.320;8.054;2024-01-11T12:38:52;101084.16;;;-1.73;73.35
35908;BME280;22003;50.320;8.054;2024-01-11T12:41:18;101082.81;;;-1.04;74.07